Time;durP1;ratioP1;P1;durP2;ratioP2;P2;SDS_P1;SDS_P2;PMS_P1;PMS_P2;Temp;Humidity;BMP_temperature;BMP_pressure;BME280_temperature;BME280_humidity;BME280_pressure;Samples;Min_cycle;Max_cycle;Signal;HPM_P1;HPM_P2
2022/07/18 00:00:36;;;;;;;4.23;3.83;;;21.10;55.20;;;;;;5008524;28;20470;-79
2022/07/18 00:03:04;;;;;;;4.43;3.60;;;21.10;55.80;;;;;;5027082;28;20428;-79
2022/07/18 00:05:31;;;;;;;5.43;3.83;;;21.00;56.00;;;;;;5023717;28;20442;-79
2022/07/18 00:07:58;;;;;;;4.83;3.90;;;20.90;56.20;;;;;;5038010;28;20474;-79
2022/07/18 00:10:25;;;;;;;4.90;4.23;;;20.90;56.20;;;;;;5028149;28;20508;-79
2022/07/18 00:12:51;;;;;;;4.47;3.63;;;20.90;56.60;;;;;;5019188;28;20443;-79
2022/07/18 00:15:18;;;;;;;4.97;4.00;;;20.90;56.70;;;;;;5013558;28;20435;-79
2022/07/18 00:17:45;;;;;;;4.50;3.23;;;20.80;56.70;;;;;;5008139;28;20448;-79
2022/07/18 00:20:14;;;;;;;4.83;3.93;;;20.70;57.00;;;;;;5014022;28;20876;-79
2022/07/18 00:22:54;;;;;;;6.43;4.20;;;20.70;57.10;;;;;;5011605;28;20518;-79
2022/07/18 00:25:20;;;;;;;6.57;4.53;;;20.70;57.60;;;;;;5016570;28;20442;-79
2022/07/18 00:27:47;;;;;;;4.57;4.13;;;20.60;57.40;;;;;;5017909;28;20451;-79
2022/07/18 00:30:14;;;;;;;6.40;5.10;;;20.60;57.30;;;;;;5015275;28;20486;-80
2022/07/18 00:32:41;;;;;;;5.43;4.70;;;20.50;57.30;;;;;;5012822;28;20971;-80
2022/07/18 00:35:09;;;;;;;6.53;4.43;;;20.50;57.30;;;;;;5009444;28;20454;-79
2022/07/18 00:37:37;;;;;;;5.77;4.80;;;20.40;57.10;;;;;;5009164;28;20985;-79
2022/07/18 00:40:05;;;;;;;4.13;3.80;;;20.40;57.40;;;;;;5004058;28;20534;-79
2022/07/18 00:42:32;;;;;;;4.77;3.97;;;20.40;57.60;;;;;;5001503;28;20443;-78
2022/07/18 00:44:59;;;;;;;7.30;3.47;;;20.40;57.00;;;;;;5009758;28;20450;-79
2022/07/18 00:47:25;;;;;;;5.23;4.03;;;20.40;55.80;;;;;;5013374;28;20936;-79
2022/07/18 00:49:52;;;;;;;5.53;4.10;;;20.30;55.10;;;;;;5006724;28;20486;-79
2022/07/18 00:52:19;;;;;;;4.90;3.53;;;20.20;54.80;;;;;;5005378;28;20442;-79
2022/07/18 00:54:47;;;;;;;5.23;3.90;;;20.10;55.10;;;;;;5011351;28;20943;-79
2022/07/18 00:57:14;;;;;;;8.73;3.90;;;20.10;55.50;;;;;;5009671;28;20837;-79
2022/07/18 01:02:26;;;;;;;8.03;4.60;;;20.00;55.70;;;;;;5006935;28;20418;-79
2022/07/18 01:04:53;;;;;;;6.33;4.20;;;20.00;55.90;;;;;;5007498;28;20550;-79
2022/07/18 01:07:19;;;;;;;7.37;4.20;;;20.00;56.00;;;;;;5008647;28;21007;-79
2022/07/18 01:09:47;;;;;;;4.83;3.47;;;19.90;56.00;;;;;;5011401;28;20475;-79
2022/07/18 01:12:15;;;;;;;4.40;3.30;;;19.80;56.20;;;;;;5009117;28;20860;-79
2022/07/18 01:14:42;;;;;;;4.23;3.83;;;19.80;56.20;;;;;;5008812;28;20447;-79
2022/07/18 01:17:16;;;;;;;8.60;4.17;;;19.80;56.40;;;;;;5007943;28;20933;-79
2022/07/18 01:19:43;;;;;;;10.87;4.20;;;19.80;56.60;;;;;;5010114;28;20447;-79
2022/07/18 01:22:11;;;;;;;7.00;3.60;;;19.70;56.90;;;;;;5002308;28;20451;-79
2022/07/18 01:24:39;;;;;;;5.50;3.90;;;19.70;57.10;;;;;;5006922;28;20446;-79
2022/07/18 01:27:06;;;;;;;8.87;4.03;;;19.60;57.20;;;;;;5010573;28;20450;-79
2022/07/18 01:29:33;;;;;;;6.13;3.67;;;19.60;57.20;;;;;;5006046;28;20479;-79
2022/07/18 01:32:05;;;;;;;4.03;3.23;;;19.60;57.30;;;;;;5004388;28;20443;-79
2022/07/18 01:34:32;;;;;;;5.00;4.50;;;19.50;57.50;;;;;;5007951;28;20563;-78
2022/07/18 01:36:59;;;;;;;4.20;3.40;;;19.50;57.70;;;;;;5009243;28;20447;-79
2022/07/18 01:39:27;;;;;;;5.17;4.20;;;19.50;57.90;;;;;;5007775;28;20435;-79
2022/07/18 01:41:56;;;;;;;7.47;3.90;;;19.40;58.30;;;;;;5010532;28;20526;-79
2022/07/18 01:44:23;;;;;;;4.30;3.73;;;19.30;58.80;;;;;;5018867;28;20442;-78
2022/07/18 01:46:50;;;;;;;5.07;4.10;;;19.20;58.80;;;;;;5014952;28;20446;-78
2022/07/18 01:49:17;;;;;;;6.03;3.77;;;19.20;59.10;;;;;;5017212;28;20549;-79
2022/07/18 01:51:46;;;;;;;3.60;3.30;;;19.10;59.30;;;;;;5024171;28;20455;-79
2022/07/18 01:54:13;;;;;;;5.73;4.00;;;19.10;59.60;;;;;;5008158;28;20435;-79
2022/07/18 01:56:41;;;;;;;3.77;3.37;;;19.10;59.80;;;;;;5006172;28;20450;-79
2022/07/18 01:59:07;;;;;;;4.60;3.80;;;19.00;60.00;;;;;;5006993;28;20526;-80
2022/07/18 02:01:34;;;;;;;8.20;4.20;;;19.00;60.50;;;;;;5005922;28;20512;-80
2022/07/18 02:04:01;;;;;;;5.63;3.83;;;18.90;61.00;;;;;;5003951;28;20454;-80
2022/07/18 02:06:28;;;;;;;6.30;4.20;;;18.90;61.40;;;;;;5003350;28;20436;-80
2022/07/18 02:08:54;;;;;;;4.60;3.57;;;18.90;61.70;;;;;;5009385;28;20826;-80
2022/07/18 02:11:21;;;;;;;5.80;3.40;;;18.90;61.90;;;;;;5014612;28;20482;-80
2022/07/18 02:13:49;;;;;;;6.70;3.60;;;18.90;62.30;;;;;;5012045;28;20439;-80
2022/07/18 02:16:16;;;;;;;7.70;4.40;;;18.80;62.30;;;;;;5013275;28;20434;-80
2022/07/18 02:18:43;;;;;;;6.93;3.60;;;18.80;62.60;;;;;;5018810;28;20446;-79
2022/07/18 02:21:10;;;;;;;5.00;3.90;;;18.80;63.20;;;;;;5017909;28;20517;-79
2022/07/18 02:23:37;;;;;;;6.10;3.57;;;18.70;63.60;;;;;;5016205;28;20443;-79
2022/07/18 02:26:04;;;;;;;8.53;4.00;;;18.70;64.80;;;;;;5017318;28;20431;-79
2022/07/18 02:28:31;;;;;;;8.20;4.43;;;18.60;64.20;;;;;;5019263;28;20958;-80
2022/07/18 02:30:59;;;;;;;4.37;3.97;;;18.70;64.60;;;;;;5013770;28;20493;-80
2022/07/18 02:33:26;;;;;;;8.80;4.13;;;18.60;64.70;;;;;;5012234;28;20537;-80
2022/07/18 02:35:53;;;;;;;4.00;3.23;;;18.60;64.90;;;;;;5009716;28;20447;-80
2022/07/18 02:38:20;;;;;;;6.90;3.73;;;18.60;65.40;;;;;;5013684;28;20439;-80
2022/07/18 02:40:46;;;;;;;6.73;4.20;;;18.50;65.50;;;;;;5012057;28;20462;-80
2022/07/18 02:43:13;;;;;;;5.40;3.83;;;18.50;65.80;;;;;;5013385;28;20445;-79
2022/07/18 02:45:40;;;;;;;4.10;3.70;;;18.40;66.10;;;;;;5014126;28;21066;-80
2022/07/18 02:48:08;;;;;;;5.73;4.00;;;18.40;66.80;;;;;;5016020;28;20526;-79
2022/07/18 02:50:35;;;;;;;3.83;3.30;;;18.30;67.10;;;;;;5013239;28;20533;-79
2022/07/18 02:53:02;;;;;;;4.30;3.73;;;18.30;67.40;;;;;;5011206;28;20502;-78
2022/07/18 02:55:29;;;;;;;4.40;3.30;;;18.20;67.80;;;;;;5011572;28;20446;-78
2022/07/18 02:57:55;;;;;;;4.40;3.57;;;18.20;68.40;;;;;;5012453;28;20447;-78
2022/07/18 03:00:22;;;;;;;5.03;3.67;;;18.10;68.60;;;;;;5012899;28;20959;-79
2022/07/18 03:02:49;;;;;;;6.87;4.40;;;18.10;69.00;;;;;;5012697;28;20939;-80
2022/07/18 03:05:17;;;;;;;5.33;4.07;;;18.10;69.40;;;;;;5012723;28;20438;-80
2022/07/18 03:07:44;;;;;;;4.23;3.80;;;18.10;69.20;;;;;;5012966;28;20430;-80
2022/07/18 03:10:10;;;;;;;3.77;3.33;;;18.00;69.30;;;;;;5012738;28;20489;-79
2022/07/18 03:12:37;;;;;;;6.13;4.27;;;18.00;70.00;;;;;;5010689;28;20442;-79
2022/07/18 03:15:05;;;;;;;5.07;2.77;;;17.90;70.30;;;;;;5012157;28;20438;-80
2022/07/18 03:17:31;;;;;;;6.47;3.60;;;17.90;70.80;;;;;;5011832;28;20877;-80
2022/07/18 03:19:58;;;;;;;6.30;3.60;;;17.90;71.20;;;;;;5013406;28;20481;-80
2022/07/18 03:22:26;;;;;;;4.30;3.20;;;17.80;71.50;;;;;;5014460;28;20446;-79
2022/07/18 03:24:53;;;;;;;9.27;4.30;;;17.80;71.80;;;;;;5010675;28;20454;-80
2022/07/18 03:27:20;;;;;;;4.87;3.30;;;17.80;72.30;;;;;;5012162;28;20439;-79
2022/07/18 03:29:46;;;;;;;5.20;3.97;;;17.70;72.70;;;;;;5009552;28;20924;-79
2022/07/18 03:32:13;;;;;;;4.67;3.77;;;17.70;73.10;;;;;;5011872;28;20450;-79
2022/07/18 03:34:40;;;;;;;5.27;3.97;;;17.60;73.50;;;;;;5011147;28;20431;-79
2022/07/18 03:37:06;;;;;;;4.53;3.53;;;17.70;74.10;;;;;;5014663;28;20447;-79
2022/07/18 03:39:34;;;;;;;7.63;4.00;;;17.60;74.40;;;;;;5018286;28;20782;-79
2022/07/18 03:42:01;;;;;;;7.80;4.00;;;17.60;75.10;;;;;;5016571;28;20501;-79
2022/07/18 03:44:28;;;;;;;4.60;4.20;;;17.60;75.60;;;;;;5018205;28;20525;-79
2022/07/18 03:46:54;;;;;;;6.20;5.03;;;17.60;75.90;;;;;;5022151;28;20454;-79
2022/07/18 03:49:21;;;;;;;4.83;3.87;;;17.60;76.10;;;;;;5017961;28;20444;-79
2022/07/18 03:51:48;;;;;;;3.70;3.20;;;17.50;76.60;;;;;;5018529;28;20485;-79
2022/07/18 03:54:15;;;;;;;7.63;5.27;;;17.50;77.40;;;;;;5016185;28;20439;-79
2022/07/18 03:56:43;;;;;;;6.60;3.90;;;17.40;77.90;;;;;;5015544;28;20977;-79
2022/07/18 03:59:09;;;;;;;4.60;3.90;;;17.40;78.50;;;;;;5015178;28;20493;-79
2022/07/18 04:01:36;;;;;;;5.57;4.20;;;17.40;79.00;;;;;;5017828;28;20454;-79
2022/07/18 04:04:03;;;;;;;5.97;4.20;;;17.30;79.20;;;;;;5015956;28;20454;-79
2022/07/18 04:06:29;;;;;;;5.70;4.50;;;17.40;79.70;;;;;;5023491;28;20447;-79
2022/07/18 04:08:56;;;;;;;5.10;4.30;;;17.40;80.00;;;;;;5031263;28;20441;-79
2022/07/18 04:11:23;;;;;;;7.43;4.50;;;17.30;80.30;;;;;;5034470;28;20482;-79
2022/07/18 04:13:52;;;;;;;7.80;4.27;;;17.30;80.80;;;;;;5027473;28;20447;-79
2022/07/18 04:16:18;;;;;;;7.00;4.43;;;17.30;81.00;;;;;;5031954;28;20427;-80
2022/07/18 04:18:45;;;;;;;8.70;4.97;;;17.30;81.50;;;;;;5033795;28;20466;-80
2022/07/18 04:21:12;;;;;;;9.07;4.93;;;17.30;82.00;;;;;;5027935;28;20459;-79
2022/07/18 04:23:39;;;;;;;11.97;5.27;;;17.30;82.90;;;;;;5019482;28;20451;-79
2022/07/18 04:26:06;;;;;;;8.50;6.37;;;17.30;83.70;;;;;;5018341;28;20446;-79
2022/07/18 04:28:33;;;;;;;7.67;4.90;;;17.30;83.90;;;;;;5017982;28;20454;-79
2022/07/18 04:31:01;;;;;;;7.27;4.97;;;17.30;84.20;;;;;;5014536;28;20490;-79
2022/07/18 04:33:28;;;;;;;10.10;5.80;;;17.30;84.90;;;;;;5011645;28;20422;-79
2022/07/18 04:35:55;;;;;;;9.80;5.40;;;17.40;85.90;;;;;;5011021;28;20443;-78
2022/07/18 04:38:21;;;;;;;7.67;5.37;;;17.40;86.40;;;;;;5008737;28;20933;-79
2022/07/18 04:40:48;;;;;;;9.37;6.17;;;17.40;87.00;;;;;;5010648;28;20474;-79
2022/07/18 04:43:15;;;;;;;6.53;5.37;;;17.50;87.50;;;;;;5013773;28;20443;-79
2022/07/18 04:45:42;;;;;;;11.87;5.87;;;17.50;87.20;;;;;;5015488;28;20442;-79
2022/07/18 04:48:10;;;;;;;9.13;5.70;;;17.50;87.60;;;;;;5012562;28;20440;-79
2022/07/18 04:50:37;;;;;;;6.67;5.83;;;17.50;87.90;;;;;;5009915;28;20478;-79
2022/07/18 04:53:04;;;;;;;8.60;5.53;;;17.50;87.80;;;;;;5011867;28;20447;-79
2022/07/18 04:55:30;;;;;;;5.77;5.17;;;17.50;88.40;;;;;;5008718;28;20449;-79
2022/07/18 04:57:57;;;;;;;5.87;5.10;;;17.40;89.10;;;;;;5009337;28;20446;-79
2022/07/18 05:00:27;;;;;;;6.00;5.20;;;17.40;89.30;;;;;;5009718;28;20831;-79
2022/07/18 05:02:56;;;;;;;8.10;5.57;;;17.40;89.50;;;;;;5009632;28;20454;-80
2022/07/18 05:05:26;;;;;;;7.87;5.37;;;17.40;89.70;;;;;;5010358;28;20881;-79
2022/07/18 05:07:53;;;;;;;6.70;5.80;;;17.50;90.00;;;;;;5007262;28;20455;-79
2022/07/18 05:10:21;;;;;;;10.00;5.93;;;17.60;89.30;;;;;;5004939;28;20589;-79
2022/07/18 05:12:51;;;;;;;6.87;5.80;;;17.60;88.40;;;;;;5011344;28;20482;-79
2022/07/18 05:15:19;;;;;;;6.67;4.67;;;17.70;87.60;;;;;;5013262;28;20491;-78
2022/07/18 05:17:46;;;;;;;7.10;5.43;;;17.80;85.70;;;;;;5006058;28;20467;-79
2022/07/18 05:20:15;;;;;;;9.67;5.90;;;17.90;84.90;;;;;;5007009;28;20462;-78
2022/07/18 05:22:45;;;;;;;6.17;4.50;;;18.40;82.40;;;;;;5012222;28;20442;-79
2022/07/18 05:25:12;;;;;;;7.03;5.50;;;18.90;79.80;;;;;;5012448;28;20474;-80
2022/07/18 05:27:40;;;;;;;6.93;5.30;;;19.60;77.10;;;;;;5007083;28;20439;-80
2022/07/18 05:30:09;;;;;;;12.87;5.50;;;20.00;74.40;;;;;;5002105;28;20466;-80
2022/07/18 05:32:36;;;;;;;8.70;5.73;;;20.40;71.50;;;;;;5003438;28;20537;-80
2022/07/18 05:35:03;;;;;;;6.23;5.50;;;21.10;69.20;;;;;;5010834;28;20443;-80
2022/07/18 05:37:30;;;;;;;6.33;5.73;;;21.30;67.10;;;;;;5012065;28;20446;-80
2022/07/18 05:39:58;;;;;;;4.27;3.93;;;21.70;65.00;;;;;;5008496;28;20462;-79
2022/07/18 05:42:25;;;;;;;6.63;4.77;;;21.90;62.80;;;;;;5006239;28;20454;-80
2022/07/18 05:44:51;;;;;;;7.17;4.63;;;22.00;61.40;;;;;;5000846;28;20810;-80
2022/07/18 05:47:18;;;;;;;6.53;4.23;;;22.20;61.00;;;;;;5003866;28;21435;-80
2022/07/18 05:49:44;;;;;;;4.77;4.00;;;22.30;59.80;;;;;;5007668;28;20498;-80
2022/07/18 05:52:11;;;;;;;12.33;5.27;;;22.30;59.40;;;;;;5009797;28;20483;-80
2022/07/18 05:54:38;;;;;;;7.07;4.73;;;22.40;59.10;;;;;;5011291;28;20443;-79
2022/07/18 05:57:06;;;;;;;5.70;4.03;;;22.90;58.60;;;;;;4999706;28;20451;-80
2022/07/18 05:59:33;;;;;;;6.60;4.67;;;23.10;57.80;;;;;;5004116;28;20456;-80
2022/07/18 06:02:00;;;;;;;5.10;4.50;;;23.20;57.70;;;;;;4999745;28;20447;-80
2022/07/18 06:04:27;;;;;;;7.50;4.70;;;22.80;57.50;;;;;;5000788;28;20956;-80
2022/07/18 06:06:54;;;;;;;7.13;4.60;;;23.20;57.50;;;;;;5013239;28;20447;-80
2022/07/18 06:09:21;;;;;;;10.37;5.50;;;23.80;56.20;;;;;;5008890;28;20955;-78
2022/07/18 06:11:48;;;;;;;6.67;4.57;;;24.40;55.30;;;;;;5003900;28;20485;-79
2022/07/18 06:14:16;;;;;;;5.40;4.37;;;25.20;54.00;;;;;;5009560;28;20446;-79
2022/07/18 06:16:43;;;;;;;4.70;3.90;;;25.70;52.50;;;;;;5004848;28;20515;-79
2022/07/18 06:19:10;;;;;;;9.17;4.87;;;26.50;51.30;;;;;;5012788;28;20950;-78
2022/07/18 06:21:37;;;;;;;6.60;4.20;;;26.80;48.80;;;;;;5011215;28;20455;-79
2022/07/18 06:24:05;;;;;;;6.00;4.00;;;26.80;48.00;;;;;;5001861;28;20448;-79
2022/07/18 06:26:32;;;;;;;4.07;3.60;;;26.70;48.00;;;;;;5019080;28;20481;-79
2022/07/18 06:28:58;;;;;;;5.37;4.30;;;26.30;48.60;;;;;;5013595;28;20448;-79
2022/07/18 06:31:26;;;;;;;4.90;4.17;;;26.40;49.20;;;;;;5010582;28;20482;-79
2022/07/18 06:33:53;;;;;;;7.07;5.20;;;26.40;48.90;;;;;;5008766;28;20466;-79
2022/07/18 06:36:24;;;;;;;4.97;4.43;;;26.60;48.60;;;;;;5007167;28;20455;-83
2022/07/18 06:38:51;;;;;;;4.30;3.90;;;26.40;48.20;;;;;;5007661;28;20472;-80
2022/07/18 06:41:18;;;;;;;6.10;5.50;;;26.60;49.10;;;;;;5004847;28;20557;-80
2022/07/18 06:43:45;;;;;;;11.50;5.40;;;27.40;47.40;;;;;;5014077;28;20490;-80
2022/07/18 06:46:12;;;;;;;9.17;4.83;;;27.80;46.20;;;;;;5011382;28;20927;-80
2022/07/18 06:48:40;;;;;;;5.70;4.53;;;28.40;45.20;;;;;;5011037;28;20442;-80
2022/07/18 06:51:08;;;;;;;5.10;4.63;;;28.60;44.20;;;;;;4996918;28;20483;-80
2022/07/18 06:53:35;;;;;;;6.53;4.10;;;29.00;44.40;;;;;;5009569;28;20438;-80
2022/07/18 06:56:03;;;;;;;7.20;4.90;;;29.60;43.40;;;;;;5003322;28;20486;-80
2022/07/18 06:58:30;;;;;;;5.63;4.97;;;28.90;43.80;;;;;;5008985;28;20487;-80
2022/07/18 07:00:57;;;;;;;6.10;4.00;;;29.40;43.50;;;;;;5003991;28;20503;-80
2022/07/18 07:03:23;;;;;;;6.43;4.30;;;30.00;43.00;;;;;;5004722;28;20452;-80
2022/07/18 07:05:51;;;;;;;7.83;4.60;;;28.80;43.10;;;;;;5006322;28;20499;-80
2022/07/18 07:08:18;;;;;;;5.00;3.70;;;28.30;45.00;;;;;;5004596;28;20443;-80
2022/07/18 07:10:45;;;;;;;9.10;4.70;;;28.70;45.00;;;;;;5005842;28;20514;-79
2022/07/18 07:13:11;;;;;;;6.93;4.77;;;28.70;45.20;;;;;;5006295;28;20453;-79
2022/07/18 07:15:40;;;;;;;7.43;4.53;;;29.80;43.90;;;;;;5012200;28;20839;-80
2022/07/18 07:18:06;;;;;;;6.97;4.50;;;29.60;42.80;;;;;;5014233;28;20455;-80
2022/07/18 07:20:33;;;;;;;4.87;3.90;;;30.50;42.60;;;;;;5016113;28;20460;-80
2022/07/18 07:23:04;;;;;;;3.90;3.60;;;31.00;41.20;;;;;;5011093;28;20828;-80
2022/07/18 07:25:31;;;;;;;15.17;5.47;;;31.10;40.70;;;;;;5012599;28;20453;-80
2022/07/18 07:27:58;;;;;;;7.43;3.80;;;30.80;40.40;;;;;;5012639;28;20966;-80
2022/07/18 07:30:24;;;;;;;8.20;4.40;;;31.60;40.40;;;;;;5019020;28;21027;-81
2022/07/18 07:32:51;;;;;;;6.60;4.57;;;32.60;39.00;;;;;;5013831;28;20477;-79
2022/07/18 07:35:19;;;;;;;8.87;4.20;;;32.70;37.60;;;;;;5013854;28;20960;-79
2022/07/18 07:37:48;;;;;;;5.90;4.40;;;32.80;38.00;;;;;;5010670;28;20436;-80
2022/07/18 07:40:17;;;;;;;4.50;4.10;;;33.30;37.30;;;;;;5017774;28;20454;-79
2022/07/18 07:42:44;;;;;;;5.37;3.57;;;33.00;37.20;;;;;;5015149;28;20491;-87
2022/07/18 07:45:13;;;;;;;8.33;3.87;;;32.80;37.80;;;;;;5016182;28;20453;-86
2022/07/18 07:47:40;;;;;;;4.53;4.10;;;32.20;37.50;;;;;;5013524;28;20455;-86
2022/07/18 07:50:09;;;;;;;6.53;3.83;;;32.90;37.10;;;;;;5009569;28;20478;-86
2022/07/18 07:52:36;;;;;;;7.20;4.50;;;33.60;36.50;;;;;;5009072;28;20587;-86
2022/07/18 07:55:02;;;;;;;6.87;4.00;;;34.40;35.40;;;;;;5011063;28;20456;-86
2022/07/18 07:57:30;;;;;;;6.87;3.67;;;34.60;35.10;;;;;;5014732;28;20440;-87
2022/07/18 07:59:57;;;;;;;4.70;4.10;;;34.30;35.00;;;;;;5028375;28;20477;-85
2022/07/18 08:02:24;;;;;;;7.57;3.90;;;34.40;34.40;;;;;;5018229;28;20445;-86
2022/07/18 08:04:51;;;;;;;4.90;3.10;;;35.10;33.40;;;;;;5016952;28;20453;-85
2022/07/18 08:07:17;;;;;;;4.90;3.20;;;34.70;33.50;;;;;;5021456;28;20441;-85
2022/07/18 08:09:44;;;;;;;4.73;2.83;;;34.60;33.80;;;;;;5033974;28;20455;-84
2022/07/18 08:12:11;;;;;;;6.57;3.77;;;34.30;33.00;;;;;;5034535;28;20477;-87
2022/07/18 08:14:40;;;;;;;2.83;2.43;;;35.50;32.40;;;;;;5037090;28;20455;-87
2022/07/18 08:17:06;;;;;;;4.20;3.20;;;35.30;29.60;;;;;;5016616;28;20448;-87
2022/07/18 08:19:33;;;;;;;5.73;3.00;;;35.40;29.70;;;;;;5016517;28;20470;-89
2022/07/18 08:22:00;;;;;;;2.77;2.47;;;34.90;30.00;;;;;;5017856;28;20453;-86
2022/07/18 08:24:27;;;;;;;7.87;3.90;;;35.50;29.10;;;;;;5015541;28;20966;-86
2022/07/18 08:26:53;;;;;;;4.80;2.50;;;36.20;28.60;;;;;;5008481;28;20950;-86
2022/07/18 08:29:20;;;;;;;4.30;2.57;;;36.40;27.00;;;;;;5010579;28;20443;-87
2022/07/18 08:31:48;;;;;;;6.73;2.40;;;36.90;26.90;;;;;;5015183;28;20990;-88
2022/07/18 08:34:15;;;;;;;5.83;2.60;;;36.50;26.20;;;;;;5031581;28;20425;-87
2022/07/18 08:36:42;;;;;;;3.50;2.33;;;36.80;26.10;;;;;;5023274;28;20431;-87
2022/07/18 08:39:08;;;;;;;5.70;2.43;;;37.10;25.80;;;;;;5011279;28;20464;-87
2022/07/18 08:41:38;;;;;;;2.43;2.23;;;37.40;24.70;;;;;;5014757;28;20461;-87
2022/07/18 08:44:06;;;;;;;2.60;2.40;;;37.90;25.10;;;;;;5018392;28;20452;-88
2022/07/18 08:46:35;;;;;;;2.50;2.30;;;37.80;24.90;;;;;;5012945;28;20442;-88
2022/07/18 08:49:03;;;;;;;3.23;2.93;;;38.40;24.40;;;;;;5016040;28;21281;-87
2022/07/18 08:51:31;;;;;;;4.67;2.67;;;39.10;24.60;;;;;;5030629;28;20460;-87
2022/07/18 08:53:58;;;;;;;3.10;2.20;;;40.00;24.60;;;;;;5039730;28;20419;-88
2022/07/18 08:56:25;;;;;;;7.70;2.70;;;40.70;23.90;;;;;;5019943;28;20438;-88
2022/07/18 08:58:52;;;;;;;3.80;2.60;;;41.20;23.50;;;;;;5013573;28;20451;-87
2022/07/18 09:01:18;;;;;;;2.53;2.20;;;41.20;24.00;;;;;;5012802;28;20470;-86
2022/07/18 09:04:14;;;;;;;4.70;2.40;;;40.30;23.70;;;;;;5017372;28;20475;-86
2022/07/18 09:06:42;;;;;;;2.60;2.40;;;40.70;23.60;;;;;;5011607;28;20540;-86
2022/07/18 09:09:12;;;;;;;2.73;2.10;;;41.80;22.90;;;;;;5010205;28;20450;-86
2022/07/18 09:11:50;;;;;;;2.30;2.07;;;43.40;22.40;;;;;;5012500;28;20467;-86
2022/07/18 09:14:35;;;;;;;5.37;2.70;;;44.20;21.60;;;;;;5012972;28;20853;-86
2022/07/18 09:17:08;;;;;;;2.40;2.20;;;44.10;21.30;;;;;;5015295;28;20455;-86
2022/07/18 09:19:35;;;;;;;6.30;2.77;;;43.40;22.00;;;;;;5010067;28;20453;-85
2022/07/18 09:22:14;;;;;;;2.33;2.13;;;43.60;22.00;;;;;;5010953;28;20537;-85
2022/07/18 09:24:53;;;;;;;4.93;2.43;;;44.10;21.80;;;;;;5007083;28;20450;-85
2022/07/18 09:27:28;;;;;;;2.40;2.20;;;44.50;21.20;;;;;;5014269;28;20474;-86
2022/07/18 09:30:12;;;;;;;3.50;2.20;;;44.90;20.80;;;;;;5006174;28;20463;-86
2022/07/18 09:32:41;;;;;;;2.60;2.20;;;44.20;20.40;;;;;;5008192;28;20443;-86
2022/07/18 09:35:09;;;;;;;2.93;2.57;;;44.00;21.00;;;;;;5019879;28;20419;-86
2022/07/18 09:37:39;;;;;;;3.80;2.60;;;44.60;21.10;;;;;;5033441;28;20427;-86
2022/07/18 09:40:17;;;;;;;4.77;3.27;;;44.50;20.50;;;;;;5029686;28;20476;-86
2022/07/18 09:42:44;;;;;;;3.37;2.50;;;43.40;20.20;;;;;;5024180;28;20474;-86
2022/07/18 09:45:11;;;;;;;4.47;2.40;;;42.70;21.20;;;;;;5018140;28;20462;-86
2022/07/18 09:47:52;;;;;;;2.50;2.30;;;42.40;21.30;;;;;;5010546;28;20443;-86
2022/07/18 09:50:25;;;;;;;5.43;2.40;;;42.30;20.90;;;;;;5011628;28;20458;-87
2022/07/18 09:53:15;;;;;;;2.90;2.00;;;43.40;21.00;;;;;;5013402;28;20438;-85
2022/07/18 09:55:48;;;;;;;2.23;2.03;;;44.00;20.10;;;;;;5007203;28;20459;-87
2022/07/18 09:58:18;;;;;;;4.07;2.57;;;43.20;20.30;;;;;;5012149;28;20469;-87
2022/07/18 10:00:46;;;;;;;5.60;2.90;;;43.60;20.50;;;;;;5011385;28;20551;-87
2022/07/18 10:03:12;;;;;;;2.47;2.27;;;43.50;20.20;;;;;;5011431;28;20483;-88
2022/07/18 10:05:40;;;;;;;2.63;2.43;;;44.30;20.20;;;;;;5012561;28;20497;-86
2022/07/18 10:08:09;;;;;;;2.37;2.13;;;44.60;19.70;;;;;;5012933;28;20439;-86
2022/07/18 10:10:38;;;;;;;4.70;2.30;;;45.40;19.50;;;;;;5011729;28;20470;-87
2022/07/18 10:13:07;;;;;;;2.50;2.30;;;44.70;19.00;;;;;;5011712;28;20435;-86
2022/07/18 10:15:36;;;;;;;3.10;2.80;;;43.60;19.80;;;;;;5021946;28;20470;-86
2022/07/18 10:18:05;;;;;;;2.60;2.40;;;42.60;21.00;;;;;;5027419;28;20450;-86
2022/07/18 10:20:37;;;;;;;2.87;2.50;;;43.20;21.70;;;;;;5024374;28;20470;-87
2022/07/18 10:23:18;;;;;;;3.03;2.60;;;43.50;20.90;;;;;;5014087;28;21256;-86
2022/07/18 10:26:04;;;;;;;4.00;2.80;;;42.30;20.20;;;;;;5025766;28;20447;-85
2022/07/18 10:28:30;;;;;;;2.20;2.00;;;42.30;20.70;;;;;;5013045;28;20446;-87
2022/07/18 10:31:13;;;;;;;2.20;2.00;;;43.90;19.80;;;;;;5012613;28;20482;-87
2022/07/18 10:33:43;;;;;;;2.67;2.47;;;45.20;19.20;;;;;;5009729;28;20443;-87
2022/07/18 10:36:15;;;;;;;4.10;2.63;;;45.30;18.20;;;;;;5009854;28;20454;-86
2022/07/18 10:39:07;;;;;;;3.40;2.10;;;46.90;18.00;;;;;;5009460;28;20458;-86
2022/07/18 10:42:14;;;;;;;2.40;2.20;;;47.40;17.20;;;;;;5017350;28;20494;-86
2022/07/18 10:44:41;;;;;;;2.60;2.40;;;47.40;17.40;;;;;;5021678;28;20803;-86
2022/07/18 10:47:09;;;;;;;3.10;2.40;;;48.20;17.80;;;;;;5011645;28;20447;-87
2022/07/18 10:50:05;;;;;;;2.50;2.30;;;48.30;17.30;;;;;;5011347;28;20446;-87
2022/07/18 10:52:57;;;;;;;2.40;2.20;;;47.60;17.30;;;;;;5012928;28;20521;-87
2022/07/18 10:55:28;;;;;;;2.40;2.20;;;46.90;17.70;;;;;;5030940;28;20447;-86
2022/07/18 10:58:21;;;;;;;2.40;2.20;;;45.70;18.10;;;;;;5024467;28;20500;-86
2022/07/18 11:00:52;;;;;;;4.33;2.43;;;43.80;18.70;;;;;;5011054;28;20466;-86
2022/07/18 11:03:27;;;;;;;2.67;2.20;;;44.00;19.60;;;;;;5012951;28;20501;-87
2022/07/18 11:05:56;;;;;;;2.30;2.10;;;44.50;19.20;;;;;;5010727;28;20816;-87
2022/07/18 11:08:24;;;;;;;2.70;2.50;;;45.70;18.80;;;;;;5010478;28;21170;-87
2022/07/18 11:11:09;;;;;;;2.30;2.10;;;45.90;18.60;;;;;;5008829;28;20463;-87
2022/07/18 11:13:39;;;;;;;2.60;2.40;;;46.30;18.10;;;;;;5012704;28;20518;-87
2022/07/18 11:16:10;;;;;;;2.57;2.27;;;46.00;18.60;;;;;;5012235;28;20447;-87
2022/07/18 11:19:10;;;;;;;6.10;2.63;;;47.00;17.40;;;;;;5010462;28;20447;-87
2022/07/18 11:21:36;;;;;;;2.93;2.03;;;46.70;17.80;;;;;;5012962;28;20455;-87
2022/07/18 11:24:06;;;;;;;6.77;2.27;;;44.90;17.70;;;;;;5023699;28;20483;-86
2022/07/18 11:26:34;;;;;;;2.50;2.30;;;44.40;18.90;;;;;;5014950;28;20952;-86
2022/07/18 11:29:04;;;;;;;3.63;2.60;;;44.70;18.20;;;;;;5012079;28;20462;-86
2022/07/18 11:31:32;;;;;;;3.23;2.93;;;44.90;18.20;;;;;;5009730;28;20470;-86
2022/07/18 11:34:01;;;;;;;2.40;2.20;;;45.40;18.20;;;;;;5009069;28;20451;-86
2022/07/18 11:36:31;;;;;;;2.77;1.70;;;45.90;17.60;;;;;;5008432;28;20442;-86
2022/07/18 11:38:59;;;;;;;3.83;2.10;;;46.20;16.60;;;;;;5003966;28;20475;-86
2022/07/18 11:41:26;;;;;;;2.07;1.87;;;46.40;17.20;;;;;;5019781;28;20458;-86
2022/07/18 11:43:54;;;;;;;2.53;1.70;;;45.80;18.00;;;;;;5010615;28;20575;-86
2022/07/18 11:46:24;;;;;;;1.70;1.60;;;46.10;17.10;;;;;;5001851;28;20439;-86
2022/07/18 11:49:04;;;;;;;3.60;2.10;;;46.40;16.80;;;;;;5001627;28;20949;-86
2022/07/18 11:51:35;;;;;;;2.20;2.00;;;46.50;16.50;;;;;;5000929;28;20463;-86
2022/07/18 11:54:03;;;;;;;2.83;2.23;;;47.00;16.70;;;;;;5001506;28;20836;-86
2022/07/18 11:56:29;;;;;;;3.00;2.00;;;45.60;16.70;;;;;;5004153;28;20451;-85
2022/07/18 11:58:57;;;;;;;2.17;1.97;;;44.60;17.80;;;;;;5002414;28;20450;-86
2022/07/18 12:01:32;;;;;;;5.20;2.30;;;45.60;17.70;;;;;;5006146;28;20471;-86
2022/07/18 12:03:59;;;;;;;2.37;2.17;;;44.60;18.00;;;;;;5024099;28;20470;-85
2022/07/18 12:06:27;;;;;;;3.33;3.03;;;43.10;18.10;;;;;;5034850;28;20477;-86
2022/07/18 12:08:56;;;;;;;4.37;2.90;;;44.70;17.90;;;;;;5006145;28;20538;-86
2022/07/18 12:11:27;;;;;;;2.57;2.37;;;45.60;17.50;;;;;;5005724;28;20455;-86
2022/07/18 12:13:56;;;;;;;2.87;1.90;;;46.40;17.00;;;;;;5021336;28;20420;-86
2022/07/18 12:16:32;;;;;;;5.23;2.40;;;47.20;16.50;;;;;;5020961;28;20462;-86
2022/07/18 12:19:03;;;;;;;2.23;2.00;;;47.70;16.20;;;;;;5024908;28;20455;-86
2022/07/18 12:21:45;;;;;;;1.60;1.50;;;45.70;16.90;;;;;;5006602;28;20502;-86
2022/07/18 12:24:29;;;;;;;2.13;1.93;;;44.70;17.80;;;;;;5005396;28;20497;-85
2022/07/18 12:27:18;;;;;;;3.27;2.33;;;44.00;18.00;;;;;;5005846;28;20454;-87
2022/07/18 12:30:06;;;;;;;4.60;2.00;;;44.00;18.10;;;;;;5004668;28;20840;-86
2022/07/18 12:32:47;;;;;;;3.73;2.33;;;43.90;18.60;;;;;;5007392;28;21004;-86
2022/07/18 12:35:18;;;;;;;2.60;2.27;;;44.70;17.80;;;;;;5006750;28;20893;-86
2022/07/18 12:37:57;;;;;;;2.23;2.03;;;44.30;17.50;;;;;;5006050;28;20952;-86
2022/07/18 12:40:27;;;;;;;4.60;2.83;;;46.00;17.20;;;;;;5005776;28;20458;-86
2022/07/18 12:43:08;;;;;;;2.47;2.20;;;46.40;16.70;;;;;;5006262;28;20865;-87
2022/07/18 12:45:38;;;;;;;2.13;1.93;;;46.10;16.80;;;;;;5011045;28;20447;-86
2022/07/18 12:48:08;;;;;;;2.53;2.33;;;44.20;17.30;;;;;;5010510;28;20447;-86
2022/07/18 12:50:35;;;;;;;2.10;1.90;;;44.80;17.80;;;;;;5008200;28;20474;-86
2022/07/18 12:53:02;;;;;;;2.20;2.00;;;46.20;17.10;;;;;;5007539;28;20447;-87
2022/07/18 12:55:29;;;;;;;5.03;2.63;;;47.20;16.60;;;;;;5003437;28;20817;-87
2022/07/18 12:57:56;;;;;;;5.47;2.80;;;47.90;16.20;;;;;;5003840;28;20471;-87